createdAt,value
2022-09-01T00:00:56.000Z,156
2022-09-01T00:02:12.000Z,154
2022-09-01T00:03:28.000Z,154
2022-09-01T00:04:44.000Z,156
2022-09-01T00:06:00.000Z,159
2022-09-01T00:07:16.000Z,157
2022-09-01T00:08:33.000Z,155
2022-09-01T00:09:49.000Z,158
2022-09-01T00:11:05.000Z,158
2022-09-01T00:12:21.000Z,157
2022-09-01T00:13:37.000Z,155
2022-09-01T00:14:54.000Z,156
2022-09-01T00:16:10.000Z,157
2022-09-01T00:17:26.000Z,155
2022-09-01T00:18:42.000Z,157
2022-09-01T00:19:58.000Z,155
2022-09-01T00:21:14.000Z,158
2022-09-01T00:22:30.000Z,158
2022-09-01T00:23:46.000Z,157
2022-09-01T00:25:03.000Z,158
2022-09-01T00:26:19.000Z,157
2022-09-01T00:27:35.000Z,155
2022-09-01T00:28:51.000Z,150
2022-09-01T00:30:07.000Z,157
2022-09-01T00:31:24.000Z,157
2022-09-01T00:32:40.000Z,155
2022-09-01T00:33:56.000Z,158
2022-09-01T00:35:12.000Z,158
2022-09-01T00:36:28.000Z,157
2022-09-01T00:37:44.000Z,158
2022-09-01T00:38:59.000Z,158
2022-09-01T00:40:15.000Z,157
2022-09-01T00:41:32.000Z,156
2022-09-01T00:42:48.000Z,158
2022-09-01T00:44:04.000Z,156
2022-09-01T00:45:20.000Z,155
2022-09-01T00:46:37.000Z,158
2022-09-01T00:47:53.000Z,157
2022-09-01T00:49:09.000Z,155
2022-09-01T00:50:25.000Z,158
2022-09-01T00:51:42.000Z,157
2022-09-01T00:52:58.000Z,156
2022-09-01T00:54:14.000Z,155
2022-09-01T00:55:29.000Z,157
2022-09-01T00:56:45.000Z,156
2022-09-01T00:58:02.000Z,157
2022-09-01T00:59:18.000Z,157
2022-09-01T01:00:34.000Z,157
2022-09-01T01:01:50.000Z,155
2022-09-01T01:03:07.000Z,157
2022-09-01T01:04:23.000Z,159
2022-09-01T01:05:39.000Z,157
2022-09-01T01:06:55.000Z,155
2022-09-01T01:08:12.000Z,154
2022-09-01T01:09:28.000Z,155
2022-09-01T01:10:44.000Z,158
2022-09-01T01:11:59.000Z,157
2022-09-01T01:13:16.000Z,154
2022-09-01T01:14:32.000Z,155
2022-09-01T01:15:48.000Z,155
2022-09-01T01:17:04.000Z,156
2022-09-01T01:18:20.000Z,157
2022-09-01T01:19:37.000Z,155
2022-09-01T01:20:53.000Z,156
2022-09-01T01:22:09.000Z,160
2022-09-01T01:23:25.000Z,156
2022-09-01T01:24:42.000Z,155
2022-09-01T01:25:58.000Z,156
2022-09-01T01:27:14.000Z,160
2022-09-01T01:28:29.000Z,159
2022-09-01T01:29:46.000Z,158
2022-09-01T01:31:02.000Z,156
2022-09-01T01:32:18.000Z,158
2022-09-01T01:33:34.000Z,160
2022-09-01T01:34:50.000Z,157
2022-09-01T01:36:07.000Z,160
2022-09-01T01:37:23.000Z,160
2022-09-01T01:38:39.000Z,160
2022-09-01T01:39:55.000Z,160
2022-09-01T01:41:12.000Z,155
2022-09-01T01:42:28.000Z,156
2022-09-01T01:43:44.000Z,155
2022-09-01T01:44:59.000Z,155
2022-09-01T01:46:16.000Z,156
2022-09-01T01:47:32.000Z,155
2022-09-01T01:48:48.000Z,160
2022-09-01T01:50:04.000Z,160
2022-09-01T01:51:21.000Z,160
2022-09-01T01:52:37.000Z,160
2022-09-01T01:53:53.000Z,155
2022-09-01T01:55:09.000Z,156
2022-09-01T01:56:25.000Z,157
2022-09-01T01:57:42.000Z,157
2022-09-01T01:58:58.000Z,160
2022-09-01T02:00:14.000Z,157
2022-09-01T02:01:29.000Z,155
2022-09-01T02:02:46.000Z,157
2022-09-01T02:04:02.000Z,157
2022-09-01T02:05:18.000Z,158
2022-09-01T02:06:34.000Z,160
2022-09-01T02:07:51.000Z,158
2022-09-01T02:09:07.000Z,159
2022-09-01T02:10:23.000Z,158
2022-09-01T02:11:39.000Z,160
2022-09-01T02:12:56.000Z,155
2022-09-01T02:14:12.000Z,157
2022-09-01T02:15:28.000Z,158
2022-09-01T02:16:44.000Z,158
2022-09-01T02:17:59.000Z,158
2022-09-01T02:19:16.000Z,160
2022-09-01T02:20:32.000Z,160
2022-09-01T02:21:48.000Z,161
2022-09-01T02:23:04.000Z,158
2022-09-01T02:24:21.000Z,156
2022-09-01T02:25:37.000Z,159
2022-09-01T02:26:53.000Z,157
2022-09-01T02:28:09.000Z,156
2022-09-01T02:29:26.000Z,160
2022-09-01T02:30:42.000Z,157
2022-09-01T02:31:58.000Z,160
2022-09-01T02:33:14.000Z,160
2022-09-01T02:34:30.000Z,155
2022-09-01T02:35:46.000Z,156
2022-09-01T02:37:02.000Z,155
2022-09-01T02:38:18.000Z,155
2022-09-01T02:39:34.000Z,160
2022-09-01T02:40:51.000Z,158
2022-09-01T02:42:07.000Z,158
2022-09-01T02:43:23.000Z,159
2022-09-01T02:44:39.000Z,160
2022-09-01T02:45:56.000Z,158
2022-09-01T02:47:12.000Z,160
2022-09-01T02:48:28.000Z,157
2022-09-01T02:49:44.000Z,157
2022-09-01T02:51:00.000Z,155
2022-09-01T02:52:16.000Z,156
2022-09-01T02:53:32.000Z,160
2022-09-01T02:54:48.000Z,159
2022-09-01T02:56:05.000Z,156
2022-09-01T02:57:21.000Z,156
2022-09-01T02:58:37.000Z,158
2022-09-01T02:59:53.000Z,156
2022-09-01T03:01:09.000Z,159
2022-09-01T03:02:26.000Z,156
2022-09-01T03:03:42.000Z,158
2022-09-01T03:04:58.000Z,160
2022-09-01T03:06:14.000Z,155
2022-09-01T03:07:30.000Z,157
2022-09-01T03:08:46.000Z,157
2022-09-01T03:10:02.000Z,156
2022-09-01T03:11:18.000Z,157
2022-09-01T03:12:35.000Z,153
2022-09-01T03:13:51.000Z,156
2022-09-01T03:15:07.000Z,159
2022-09-01T03:16:23.000Z,157
2022-09-01T03:17:40.000Z,159
2022-09-01T03:18:56.000Z,154
2022-09-01T03:20:12.000Z,156
2022-09-01T03:21:28.720Z,160
2022-09-01T03:22:44.000Z,160
2022-09-01T03:24:00.000Z,160
2022-09-01T03:25:16.000Z,160
2022-09-01T03:26:32.000Z,157
2022-09-01T03:27:48.000Z,159
2022-09-01T03:29:05.000Z,156
2022-09-01T03:30:21.000Z,160
2022-09-01T03:31:37.000Z,158
2022-09-01T03:32:53.000Z,159
2022-09-01T03:34:10.000Z,154
2022-09-01T03:35:26.000Z,155
2022-09-01T03:36:42.000Z,156
2022-09-01T03:37:58.000Z,154
2022-09-01T03:39:14.000Z,158
2022-09-01T03:40:31.000Z,157
2022-09-01T03:41:47.000Z,154
2022-09-01T03:43:03.000Z,158
2022-09-01T03:44:20.000Z,158
2022-09-01T03:45:36.000Z,158
2022-09-01T03:46:52.000Z,157
2022-09-01T03:48:08.000Z,154
2022-09-01T03:49:24.000Z,155
2022-09-01T03:50:41.000Z,158
2022-09-01T03:51:57.000Z,158
2022-09-01T03:53:13.000Z,157
2022-09-01T03:54:29.000Z,154
2022-09-01T03:55:46.000Z,156
2022-09-01T03:57:01.000Z,156
2022-09-01T03:58:17.000Z,159
2022-09-01T03:59:33.000Z,155
2022-09-01T04:00:50.000Z,160
2022-09-01T04:02:06.000Z,157
2022-09-01T04:03:22.000Z,157
2022-09-01T04:04:38.000Z,161
2022-09-01T04:05:55.000Z,161
2022-09-01T04:07:11.000Z,158
2022-09-01T04:08:27.000Z,145
2022-09-01T04:09:43.000Z,145
2022-09-01T04:10:59.000Z,148
2022-09-01T04:12:16.000Z,149
2022-09-01T04:13:31.000Z,151
2022-09-01T04:14:47.000Z,153
2022-09-01T04:16:03.000Z,159
2022-09-01T04:17:20.000Z,164
2022-09-01T04:18:36.000Z,171
2022-09-01T04:19:52.000Z,137
2022-09-01T04:21:08.000Z,12
2022-09-01T04:22:25.000Z,16
2022-09-01T04:23:41.000Z,16
2022-09-01T04:24:57.000Z,24
2022-09-01T04:26:13.000Z,31
2022-09-01T04:27:30.000Z,34
2022-09-01T04:28:46.000Z,44
2022-09-01T04:30:01.000Z,51
2022-09-01T04:31:17.000Z,64
2022-09-01T04:32:33.000Z,74
2022-09-01T04:33:50.000Z,92
2022-09-01T04:35:06.000Z,105
2022-09-01T04:36:22.000Z,123
2022-09-01T04:37:38.000Z,141
2022-09-01T04:38:55.000Z,163
2022-09-01T04:40:11.000Z,187
2022-09-01T04:41:27.000Z,210
2022-09-01T04:42:43.000Z,244
2022-09-01T04:44:00.000Z,267
2022-09-01T04:45:16.000Z,301
2022-09-01T04:46:31.000Z,332
2022-09-01T04:47:47.000Z,376
2022-09-01T04:49:04.000Z,422
2022-09-01T04:50:20.000Z,465
2022-09-01T04:51:36.000Z,502
2022-09-01T04:52:52.000Z,534
2022-09-01T04:54:08.000Z,569
2022-09-01T04:55:24.000Z,603
2022-09-01T04:56:40.000Z,634
2022-09-01T04:57:56.000Z,668
2022-09-01T04:59:12.000Z,704
2022-09-01T05:00:29.000Z,737
2022-09-01T05:01:45.000Z,774
2022-09-01T05:03:01.000Z,813
2022-09-01T05:04:17.000Z,863
2022-09-01T05:05:34.000Z,868
2022-09-01T05:06:50.000Z,1080
2022-09-01T05:08:06.000Z,1088
2022-09-01T05:09:22.000Z,1042
2022-09-01T05:10:38.000Z,1032
2022-09-01T05:11:54.000Z,1061
2022-09-01T05:13:10.000Z,1096
2022-09-01T05:14:26.000Z,1136
2022-09-01T05:15:42.000Z,1170
2022-09-01T05:16:59.000Z,1208
2022-09-01T05:18:15.000Z,1238
2022-09-01T05:19:31.000Z,1275
2022-09-01T05:20:46.000Z,1309
2022-09-01T05:22:02.000Z,1336
2022-09-01T05:23:17.000Z,1362
2022-09-01T05:24:32.000Z,1391
2022-09-01T05:25:48.000Z,1419
2022-09-01T05:27:05.000Z,1451
2022-09-01T05:28:21.000Z,1477
2022-09-01T05:29:37.000Z,1502
2022-09-01T05:30:53.000Z,1528
2022-09-01T05:32:10.000Z,1552
2022-09-01T05:33:26.000Z,1582
2022-09-01T05:34:42.000Z,1606
2022-09-01T05:35:58.000Z,1627
2022-09-01T05:37:15.000Z,1648
2022-09-01T05:38:31.000Z,1671
2022-09-01T05:39:47.000Z,1695
2022-09-01T05:41:02.000Z,1714
2022-09-01T05:42:19.000Z,1733
2022-09-01T05:43:35.000Z,1753
2022-09-01T05:44:51.000Z,1776
2022-09-01T05:46:07.000Z,1798
2022-09-01T05:47:23.000Z,1815
2022-09-01T05:48:40.000Z,1831
2022-09-01T05:49:56.000Z,1846
2022-09-01T05:51:12.000Z,1871
2022-09-01T05:52:28.000Z,1897
2022-09-01T05:53:45.000Z,1913
2022-09-01T05:55:01.000Z,1925
2022-09-01T05:56:17.000Z,1945
2022-09-01T05:57:32.000Z,1959
2022-09-01T05:58:49.000Z,1978
2022-09-01T06:00:05.000Z,2004
2022-09-01T06:01:21.000Z,2032
2022-09-01T06:02:37.000Z,2043
2022-09-01T06:03:54.000Z,2053
2022-09-01T06:05:10.000Z,2071
2022-09-01T06:06:26.000Z,2086
2022-09-01T06:07:42.000Z,2112
2022-09-01T06:08:58.000Z,2142
2022-09-01T06:10:15.000Z,2149
2022-09-01T06:11:31.000Z,2157
2022-09-01T06:12:47.000Z,2174
2022-09-01T06:14:02.000Z,2197
2022-09-01T06:15:19.000Z,2224
2022-09-01T06:16:35.000Z,2231
2022-09-01T06:17:51.000Z,2241
2022-09-01T06:19:07.000Z,2261
2022-09-01T06:20:24.000Z,2275
2022-09-01T06:21:40.000Z,2285
2022-09-01T06:22:56.000Z,2296
2022-09-01T06:24:12.000Z,2307
2022-09-01T06:25:28.000Z,2320
2022-09-01T06:26:45.000Z,2335
2022-09-01T06:28:01.000Z,2352
2022-09-01T06:29:17.000Z,2380
2022-09-01T06:30:32.000Z,2395
2022-09-01T06:31:49.000Z,2409
2022-09-01T06:33:05.000Z,2419
2022-09-01T06:34:21.000Z,2429
2022-09-01T06:35:37.000Z,2443
2022-09-01T06:36:54.000Z,2451
2022-09-01T06:38:10.000Z,2457
2022-09-01T06:39:26.000Z,2480
2022-09-01T06:40:42.000Z,2506
2022-09-01T06:41:59.000Z,2515
2022-09-01T06:43:15.000Z,2529
2022-09-01T06:44:31.000Z,2543
2022-09-01T06:45:47.000Z,2550
2022-09-01T06:47:02.000Z,2555
2022-09-01T06:48:19.000Z,2565
2022-09-01T06:49:35.000Z,2575
2022-09-01T06:50:51.000Z,2588
2022-09-01T06:52:07.000Z,2602
2022-09-01T06:53:24.000Z,2609
2022-09-01T06:54:40.000Z,2620
2022-09-01T06:55:56.000Z,2627
2022-09-01T06:57:12.000Z,2637
2022-09-01T06:58:29.000Z,2643
2022-09-01T06:59:45.000Z,2650
2022-09-01T07:01:01.000Z,2657
2022-09-01T07:02:17.000Z,2665
2022-09-01T07:03:33.000Z,2673
2022-09-01T07:04:49.000Z,2683
2022-09-01T07:06:05.000Z,2693
2022-09-01T07:07:21.000Z,2700
2022-09-01T07:08:37.000Z,2707
2022-09-01T07:09:54.000Z,2711
2022-09-01T07:11:10.000Z,2719
2022-09-01T07:12:26.000Z,2725
2022-09-01T07:13:42.000Z,2734
2022-09-01T07:14:59.000Z,2735
2022-09-01T07:16:15.000Z,2742
2022-09-01T07:17:31.000Z,2746
2022-09-01T07:18:47.000Z,2750
2022-09-01T07:20:03.000Z,2755
2022-09-01T07:21:19.000Z,2764
2022-09-01T07:22:35.000Z,2775
2022-09-01T07:23:51.000Z,2780
2022-09-01T07:25:08.000Z,2784
2022-09-01T07:26:24.000Z,2792
2022-09-01T07:27:40.000Z,2791
2022-09-01T07:28:56.000Z,2796
2022-09-01T07:30:12.000Z,2800
2022-09-01T07:31:29.000Z,2808
2022-09-01T07:32:45.000Z,2810
2022-09-01T07:34:01.000Z,2813
2022-09-01T07:35:17.000Z,2813
2022-09-01T07:36:34.000Z,2815
2022-09-01T07:37:49.000Z,2819
2022-09-01T07:39:05.000Z,2823
2022-09-01T07:40:21.000Z,2827
2022-09-01T07:41:38.000Z,2829
2022-09-01T07:42:54.000Z,2833
2022-09-01T07:44:10.000Z,2837
2022-09-01T07:45:26.000Z,2844
2022-09-01T07:46:43.000Z,2851
2022-09-01T07:47:59.000Z,2852
2022-09-01T07:49:15.000Z,2853
2022-09-01T07:50:31.000Z,2857
2022-09-01T07:51:47.000Z,2861
2022-09-01T07:53:04.000Z,2864
2022-09-01T07:54:19.000Z,2865
2022-09-01T07:55:35.000Z,2867
2022-09-01T07:56:51.000Z,2871
2022-09-01T07:58:08.000Z,2870
2022-09-01T07:59:24.000Z,2877
2022-09-01T08:00:40.000Z,2876
2022-09-01T08:01:56.000Z,2878
2022-09-01T08:03:13.000Z,2881
2022-09-01T08:04:29.000Z,2883
2022-09-01T08:05:45.000Z,2888
2022-09-01T08:07:01.000Z,2897
2022-09-01T08:08:17.000Z,2906
2022-09-01T08:09:32.000Z,2901
2022-09-01T08:10:48.000Z,2895
2022-09-01T08:12:04.000Z,2900
2022-09-01T08:13:20.000Z,2902
2022-09-01T08:14:35.000Z,2904
2022-09-01T08:15:51.000Z,2902
2022-09-01T08:17:07.000Z,2901
2022-09-01T08:18:23.000Z,2905
2022-09-01T08:19:40.000Z,2905
2022-09-01T08:20:56.000Z,2915
2022-09-01T08:22:12.000Z,2923
2022-09-01T08:23:28.000Z,2929
2022-09-01T08:24:45.000Z,2931
2022-09-01T08:26:01.000Z,2934
2022-09-01T08:27:17.000Z,2939
2022-09-01T08:28:33.000Z,2942
2022-09-01T08:29:50.000Z,2947
2022-09-01T08:31:05.000Z,2951
2022-09-01T08:32:21.000Z,2954
2022-09-01T08:33:37.000Z,2961
2022-09-01T08:34:54.000Z,2963
2022-09-01T08:36:10.000Z,2965
2022-09-01T08:37:26.000Z,2962
2022-09-01T08:38:42.000Z,2967
2022-09-01T08:39:57.000Z,2974
2022-09-01T08:41:14.000Z,2978
2022-09-01T08:42:30.000Z,2980
2022-09-01T08:43:46.000Z,2992
2022-09-01T08:45:03.000Z,2992
2022-09-01T08:46:19.000Z,2992
2022-09-01T08:47:35.000Z,2986
2022-09-01T08:48:51.000Z,2983
2022-09-01T08:50:07.000Z,2978
2022-09-01T08:51:24.000Z,2983
2022-09-01T08:52:40.000Z,2992
2022-09-01T08:53:55.000Z,2999
2022-09-01T08:55:10.000Z,3000
2022-09-01T08:56:27.000Z,2999
2022-09-01T08:57:43.000Z,2998
2022-09-01T08:58:59.000Z,3000
2022-09-01T09:00:15.000Z,3006
2022-09-01T09:01:32.000Z,3016
2022-09-01T09:02:48.000Z,3021
2022-09-01T09:04:04.000Z,3034
2022-09-01T09:05:20.000Z,3036
2022-09-01T09:06:37.000Z,3043
2022-09-01T09:07:53.000Z,3046
2022-09-01T09:09:08.000Z,3058
2022-09-01T09:10:24.000Z,3073
2022-09-01T09:11:41.000Z,3083
2022-09-01T09:12:57.000Z,3074
2022-09-01T09:14:13.000Z,3069
2022-09-01T09:15:29.000Z,3081
2022-09-01T09:16:45.000Z,3104
2022-09-01T09:18:02.000Z,3117
2022-09-01T09:19:18.000Z,3124
2022-09-01T09:20:34.000Z,3123
2022-09-01T09:21:50.000Z,3129
2022-09-01T09:23:07.000Z,3151
2022-09-01T09:24:23.000Z,3183
2022-09-01T09:25:38.000Z,3214
2022-09-01T09:26:54.000Z,3255
2022-09-01T09:28:11.000Z,3333
2022-09-01T09:29:26.000Z,3502
2022-09-01T09:30:41.000Z,3709
2022-09-01T09:31:57.000Z,3768
2022-09-01T09:33:14.000Z,3836
2022-09-01T09:34:30.000Z,3912
2022-09-01T09:35:46.000Z,3941
2022-09-01T09:37:01.000Z,3957
2022-09-01T09:38:17.000Z,3982
2022-09-01T09:39:33.000Z,3999
2022-09-01T09:40:49.000Z,4058
2022-09-01T09:42:05.000Z,4386
2022-09-01T09:43:21.000Z,4575
2022-09-01T09:44:38.000Z,5676
2022-09-01T09:45:54.000Z,5659
2022-09-01T09:47:10.000Z,6538
2022-09-01T09:48:26.000Z,6398
2022-09-01T09:49:43.000Z,6237
2022-09-01T09:50:59.000Z,6574
2022-09-01T09:52:15.000Z,7039
2022-09-01T09:53:31.000Z,7139
2022-09-01T09:54:47.000Z,6511
2022-09-01T09:56:03.000Z,5822
2022-09-01T09:57:19.000Z,5551
2022-09-01T09:58:35.789Z,5801
2022-09-01T09:59:52.000Z,6226
2022-09-01T10:01:08.000Z,5841
2022-09-01T10:02:24.000Z,7094
2022-09-01T10:03:40.000Z,6935
2022-09-01T10:04:56.000Z,6726
2022-09-01T10:06:13.000Z,7892
2022-09-01T10:07:29.000Z,7325
2022-09-01T10:08:45.000Z,6681
2022-09-01T10:10:01.000Z,5856
2022-09-01T10:11:17.000Z,6697
2022-09-01T10:12:33.000Z,7576
2022-09-01T10:13:49.000Z,8022
2022-09-01T10:15:05.000Z,8633
2022-09-01T10:16:22.000Z,10384
2022-09-01T10:17:38.000Z,10284
2022-09-01T10:18:54.000Z,10717
2022-09-01T10:20:10.000Z,10461
2022-09-01T10:21:27.000Z,9169
2022-09-01T10:22:43.000Z,7748
2022-09-01T10:23:59.000Z,7240
2022-09-01T10:25:15.000Z,8160
2022-09-01T10:26:31.000Z,9512
2022-09-01T10:27:47.000Z,9926
2022-09-01T10:29:03.000Z,9858
2022-09-01T10:30:19.000Z,9422
2022-09-01T10:31:35.000Z,10525
2022-09-01T10:32:52.000Z,9232
2022-09-01T10:34:08.000Z,9497
2022-09-01T10:35:24.000Z,8339
2022-09-01T10:36:40.000Z,7366
2022-09-01T10:37:57.000Z,6609
2022-09-01T10:39:13.000Z,6125
2022-09-01T10:40:29.000Z,6171
2022-09-01T10:41:45.000Z,6476
2022-09-01T10:43:01.000Z,6465
2022-09-01T10:44:17.000Z,6900
2022-09-01T10:45:33.000Z,6816
2022-09-01T10:46:49.000Z,6667
2022-09-01T10:48:05.000Z,6694
2022-09-01T10:49:22.000Z,6875
2022-09-01T10:50:38.000Z,6937
2022-09-01T10:51:54.000Z,7214
2022-09-01T10:53:10.000Z,7099
2022-09-01T10:54:27.000Z,6664
2022-09-01T10:55:43.000Z,6452
2022-09-01T10:56:59.000Z,5878
2022-09-01T10:58:15.000Z,7045
2022-09-01T10:59:32.000Z,7977
2022-09-01T11:00:47.000Z,10673
2022-09-01T11:02:03.000Z,10331
2022-09-01T11:03:19.000Z,10599
2022-09-01T11:04:35.000Z,10050
2022-09-01T11:05:52.000Z,9464
2022-09-01T11:07:08.000Z,8683
2022-09-01T11:08:24.000Z,8212
2022-09-01T11:09:40.000Z,8514
2022-09-01T11:10:57.000Z,10459
2022-09-01T11:12:13.000Z,11451
2022-09-01T11:13:29.000Z,11386
2022-09-01T11:14:45.000Z,11566
2022-09-01T11:16:02.000Z,11188
2022-09-01T11:17:17.000Z,10569
2022-09-01T11:18:33.000Z,10837
2022-09-01T11:19:49.000Z,9601
2022-09-01T11:21:06.000Z,8121
2022-09-01T11:22:22.000Z,8061
2022-09-01T11:23:38.000Z,8006
2022-09-01T11:24:54.000Z,9648
2022-09-01T11:26:10.000Z,10838
2022-09-01T11:27:27.000Z,9929
2022-09-01T11:28:43.000Z,9007
2022-09-01T11:29:59.000Z,8128
2022-09-01T11:31:15.000Z,8152
2022-09-01T11:32:32.000Z,8887
2022-09-01T11:33:47.000Z,9436
2022-09-01T11:35:03.000Z,8812
2022-09-01T11:36:19.000Z,8447
2022-09-01T11:37:36.000Z,8189
2022-09-01T11:38:52.000Z,7923
2022-09-01T11:40:08.000Z,7953
2022-09-01T11:41:24.000Z,7654
2022-09-01T11:42:41.000Z,7388
2022-09-01T11:43:57.000Z,8964
2022-09-01T11:45:13.000Z,9072
2022-09-01T11:46:29.000Z,8899
2022-09-01T11:47:45.000Z,10184
2022-09-01T11:49:02.000Z,10241
2022-09-01T11:50:17.000Z,9802
2022-09-01T11:51:33.000Z,9197
2022-09-01T11:52:49.000Z,9278
2022-09-01T11:54:06.000Z,8918
2022-09-01T11:55:22.000Z,9647
2022-09-01T11:56:38.000Z,9971
2022-09-01T11:57:54.000Z,10166
2022-09-01T11:59:11.000Z,10620
2022-09-01T12:00:27.000Z,10578
2022-09-01T12:01:43.000Z,10316
2022-09-01T12:02:59.000Z,10239
2022-09-01T12:04:16.000Z,9253
2022-09-01T12:05:32.000Z,9698
2022-09-01T12:06:47.000Z,9729
2022-09-01T12:08:03.000Z,10002
2022-09-01T12:09:19.000Z,9466
2022-09-01T12:10:36.000Z,8835
2022-09-01T12:11:52.000Z,9089
2022-09-01T12:13:08.000Z,8578
2022-09-01T12:14:24.000Z,9756
2022-09-01T12:15:41.000Z,8680
2022-09-01T12:16:57.000Z,7892
2022-09-01T12:18:13.000Z,7826
2022-09-01T12:19:29.000Z,7822
2022-09-01T12:20:46.000Z,8465
2022-09-01T12:22:02.000Z,8514
2022-09-01T12:23:17.000Z,8278
2022-09-01T12:24:33.000Z,8610
2022-09-01T12:25:50.000Z,8709
2022-09-01T12:27:06.000Z,8518
2022-09-01T12:28:22.000Z,8179
2022-09-01T12:29:38.000Z,8103
2022-09-01T12:30:54.000Z,7909
2022-09-01T12:32:11.000Z,8853
2022-09-01T12:33:27.000Z,9150
2022-09-01T12:34:43.000Z,9411
2022-09-01T12:35:59.000Z,8840
2022-09-01T12:37:16.000Z,9411
2022-09-01T12:38:32.000Z,11279
2022-09-01T12:39:48.000Z,11231
2022-09-01T12:41:03.000Z,12241
2022-09-01T12:42:20.000Z,12219
2022-09-01T12:43:36.000Z,11476
2022-09-01T12:44:52.000Z,11026
2022-09-01T12:46:08.000Z,10274
2022-09-01T12:47:25.000Z,11002
2022-09-01T12:48:41.000Z,11708
2022-09-01T12:49:57.000Z,11141
2022-09-01T12:51:13.000Z,11670
2022-09-01T12:52:29.000Z,10956
2022-09-01T12:53:46.000Z,10468
2022-09-01T12:55:02.000Z,10024
2022-09-01T12:56:18.000Z,9670
2022-09-01T12:57:33.000Z,9507
2022-09-01T12:58:50.000Z,8980
2022-09-01T13:00:06.000Z,8176
2022-09-01T13:01:22.000Z,7558
2022-09-01T13:02:38.000Z,7152
2022-09-01T13:03:55.000Z,7056
2022-09-01T13:05:11.000Z,7424
2022-09-01T13:06:27.000Z,8008
2022-09-01T13:07:43.000Z,8623
2022-09-01T13:08:59.000Z,9295
2022-09-01T13:10:16.230Z,9376
2022-09-01T13:11:32.000Z,9243
2022-09-01T13:12:48.000Z,9192
2022-09-01T13:14:03.000Z,8927
2022-09-01T13:15:20.000Z,8338
2022-09-01T13:16:36.000Z,7640
2022-09-01T13:17:51.000Z,6959
2022-09-01T13:19:06.000Z,6534
2022-09-01T13:20:23.000Z,6403
2022-09-01T13:21:39.000Z,6381
2022-09-01T13:22:55.000Z,6317
2022-09-01T13:24:10.000Z,6525
2022-09-01T13:25:26.000Z,7044
2022-09-01T13:26:41.000Z,7712
2022-09-01T13:27:57.000Z,8691
2022-09-01T13:29:13.000Z,8651
2022-09-01T13:30:30.000Z,9470
2022-09-01T13:31:46.000Z,9317
2022-09-01T13:33:02.000Z,10422
2022-09-01T13:34:18.000Z,10041
2022-09-01T13:35:35.000Z,10050
2022-09-01T13:36:51.000Z,9734
2022-09-01T13:38:07.000Z,9742
2022-09-01T13:39:23.000Z,7704
2022-09-01T13:40:39.000Z,4072
2022-09-01T13:41:56.000Z,26663
2022-09-01T13:43:11.000Z,14396
2022-09-01T13:44:27.000Z,8794
2022-09-01T13:45:43.000Z,3672
2022-09-01T13:47:00.000Z,27595
2022-09-01T13:48:16.000Z,16069
2022-09-01T13:49:32.000Z,20649
2022-09-01T13:50:48.000Z,30373
2022-09-01T13:52:05.000Z,27354
2022-09-01T13:53:21.000Z,27285
2022-09-01T13:54:37.000Z,28449
2022-09-01T13:55:53.000Z,33294
2022-09-01T13:57:10.000Z,32386
2022-09-01T13:58:26.000Z,29411
2022-09-01T13:59:41.000Z,28954
2022-09-01T14:00:57.000Z,30712
2022-09-01T14:02:13.000Z,32404
2022-09-01T14:03:30.000Z,32873
2022-09-01T14:04:46.000Z,29964
2022-09-01T14:06:02.000Z,32872
2022-09-01T14:07:18.000Z,30611
2022-09-01T14:08:35.000Z,27556
2022-09-01T14:09:51.000Z,29458
2022-09-01T14:11:07.000Z,29937
2022-09-01T14:12:23.000Z,26906
2022-09-01T14:13:40.000Z,31306
2022-09-01T14:14:56.000Z,30972
2022-09-01T14:16:11.000Z,31026
2022-09-01T14:17:27.000Z,30706
2022-09-01T14:18:44.000Z,30773
2022-09-01T14:20:00.000Z,31833
2022-09-01T14:21:16.000Z,25124
2022-09-01T14:22:32.000Z,4171
2022-09-01T14:23:48.000Z,31805
2022-09-01T14:25:05.000Z,21860
2022-09-01T14:26:21.000Z,2544
2022-09-01T14:27:37.000Z,9180
2022-09-01T14:28:53.000Z,31629
2022-09-01T14:30:10.000Z,27321
2022-09-01T14:31:26.000Z,30887
2022-09-01T14:32:41.000Z,25054
2022-09-01T14:33:57.000Z,26786
2022-09-01T14:35:14.000Z,30690
2022-09-01T14:36:30.000Z,30632
2022-09-01T14:37:46.000Z,29378
2022-09-01T14:39:02.000Z,27827
2022-09-01T14:40:19.000Z,27087
2022-09-01T14:41:35.000Z,26221
2022-09-01T14:42:51.000Z,29882
2022-09-01T14:44:07.000Z,30312
2022-09-01T14:45:23.000Z,30409
2022-09-01T14:46:40.000Z,34403
2022-09-01T14:47:56.000Z,30028
2022-09-01T14:49:11.000Z,28511
2022-09-01T14:50:27.000Z,29709
2022-09-01T14:51:44.000Z,27074
2022-09-01T14:53:00.000Z,22773
2022-09-01T14:54:16.000Z,24811
2022-09-01T14:55:32.000Z,27101
2022-09-01T14:56:49.000Z,28875
2022-09-01T14:58:05.000Z,26671
2022-09-01T14:59:21.000Z,26121
2022-09-01T15:00:37.000Z,27283
2022-09-01T15:01:54.000Z,31778
2022-09-01T15:03:10.000Z,24592
2022-09-01T15:04:26.000Z,18032
2022-09-01T15:05:41.000Z,15679
2022-09-01T15:06:57.000Z,15157
2022-09-01T15:08:12.000Z,13810
2022-09-01T15:09:28.000Z,12815
2022-09-01T15:10:44.000Z,12239
2022-09-01T15:12:00.000Z,11992
2022-09-01T15:13:17.000Z,11862
2022-09-01T15:14:33.000Z,11692
2022-09-01T15:15:49.000Z,11928
2022-09-01T15:17:04.000Z,11993
2022-09-01T15:18:20.000Z,11661
2022-09-01T15:19:36.000Z,11690
2022-09-01T15:20:52.000Z,11841
2022-09-01T15:22:08.000Z,12322
2022-09-01T15:23:25.000Z,12624
2022-09-01T15:24:41.000Z,12893
2022-09-01T15:25:57.000Z,12982
2022-09-01T15:27:13.000Z,13229
2022-09-01T15:28:30.000Z,13241
2022-09-01T15:29:46.000Z,13108
2022-09-01T15:31:02.000Z,12824
2022-09-01T15:32:18.000Z,12293
2022-09-01T15:33:34.000Z,11697
2022-09-01T15:34:50.000Z,11161
2022-09-01T15:36:06.000Z,10867
2022-09-01T15:37:22.000Z,10669
2022-09-01T15:38:38.000Z,10503
2022-09-01T15:39:55.000Z,10327
2022-09-01T15:41:11.000Z,10190
2022-09-01T15:42:27.000Z,10072
2022-09-01T15:43:42.000Z,9935
2022-09-01T15:44:58.000Z,9864
2022-09-01T15:46:14.000Z,9844
2022-09-01T15:47:30.000Z,9783
2022-09-01T15:48:46.000Z,9707
2022-09-01T15:50:03.000Z,9663
2022-09-01T15:51:19.000Z,9643
2022-09-01T15:52:35.000Z,9650
2022-09-01T15:53:51.000Z,9686
2022-09-01T15:55:07.000Z,9745
2022-09-01T15:56:22.000Z,9788
2022-09-01T15:57:38.000Z,9775
2022-09-01T15:58:54.000Z,9770
2022-09-01T16:00:11.000Z,10292
2022-09-01T16:01:27.000Z,9965
2022-09-01T16:02:43.000Z,10636
2022-09-01T16:03:59.000Z,11357
2022-09-01T16:05:15.000Z,9635
2022-09-01T16:06:32.000Z,10961
2022-09-01T16:07:48.000Z,17568
2022-09-01T16:09:04.000Z,15074
2022-09-01T16:10:20.000Z,17772
2022-09-01T16:11:37.000Z,17022
2022-09-01T16:12:52.000Z,17303
2022-09-01T16:14:08.000Z,14309
2022-09-01T16:15:24.000Z,16559
2022-09-01T16:16:41.000Z,16169
2022-09-01T16:17:57.000Z,18002
2022-09-01T16:19:13.000Z,17957
2022-09-01T16:20:29.000Z,15445
2022-09-01T16:21:45.000Z,14763
2022-09-01T16:23:00.000Z,13244
2022-09-01T16:24:16.000Z,16367
2022-09-01T16:25:32.000Z,17997
2022-09-01T16:26:48.000Z,15712
2022-09-01T16:28:05.000Z,16046
2022-09-01T16:29:21.000Z,13421
2022-09-01T16:30:37.000Z,10994
2022-09-01T16:31:53.000Z,9736
2022-09-01T16:33:09.000Z,9647
2022-09-01T16:34:24.000Z,9577
2022-09-01T16:35:40.000Z,8802
2022-09-01T16:36:56.000Z,9782
2022-09-01T16:38:13.000Z,9586
2022-09-01T16:39:29.000Z,10228
2022-09-01T16:40:45.000Z,10235
2022-09-01T16:42:01.000Z,9542
2022-09-01T16:43:18.000Z,9489
2022-09-01T16:44:34.000Z,9668
2022-09-01T16:45:50.000Z,9595
2022-09-01T16:47:06.000Z,9515
2022-09-01T16:48:23.000Z,8535
2022-09-01T16:49:39.000Z,8080
2022-09-01T16:50:54.000Z,8148
2022-09-01T16:52:10.000Z,8044
2022-09-01T16:53:26.000Z,7964
2022-09-01T16:54:43.000Z,7796
2022-09-01T16:55:59.000Z,7850
2022-09-01T16:57:15.000Z,7738